sensor_id;sensor_type;location;lat;lon;timestamp;pressure;altitude;pressure_sealevel;temperature;humidity
41264;BME280;26998;48.714;9.414;2022-09-12T00:00:20;98909.88;;;11.15;100.00
41264;BME280;26998;48.714;9.414;2022-09-12T00:02:46;98917.31;;;11.13;100.00
41264;BME280;26998;48.714;9.414;2022-09-12T00:05:12;98917.72;;;11.10;100.00
41264;BME280;26998;48.714;9.414;2022-09-12T00:07:39;98909.88;;;11.08;100.00
41264;BME280;26998;48.714;9.414;2022-09-12T00:10:06;98906.38;;;11.08;100.00
41264;BME280;26998;48.714;9.414;2022-09-12T00:12:32;98916.06;;;11.09;100.00
41264;BME280;26998;48.714;9.414;2022-09-12T00:14:58;98904.53;;;11.08;100.00
41264;BME280;26998;48.714;9.414;2022-09-12T00:17:25;98914.78;;;10.98;100.00
41264;BME280;26998;48.714;9.414;2022-09-12T00:19:51;98909.25;;;11.00;100.00
41264;BME280;26998;48.714;9.414;2022-09-12T00:22:17;98905.13;;;10.97;100.00
41264;BME280;26998;48.714;9.414;2022-09-12T00:24:44;98905.13;;;10.97;100.00
41264;BME280;26998;48.714;9.414;2022-09-12T00:27:10;98903.00;;;10.93;100.00
41264;BME280;26998;48.714;9.414;2022-09-12T00:29:37;98898.28;;;10.88;100.00
41264;BME280;26998;48.714;9.414;2022-09-12T00:32:03;98904.03;;;10.85;100.00
41264;BME280;26998;48.714;9.414;2022-09-12T00:34:29;98906.06;;;10.83;100.00
41264;BME280;26998;48.714;9.414;2022-09-12T00:36:56;98903.59;;;10.81;100.00
41264;BME280;26998;48.714;9.414;2022-09-12T00:39:22;98893.94;;;10.87;100.00
41264;BME280;26998;48.714;9.414;2022-09-12T00:41:49;98899.75;;;10.91;100.00
41264;BME280;26998;48.714;9.414;2022-09-12T00:47:02;98895.41;;;10.90;100.00
41264;BME280;26998;48.714;9.414;2022-09-12T00:49:58;98895.78;;;10.86;100.00
41264;BME280;26998;48.714;9.414;2022-09-12T00:52:43;98889.38;;;10.81;100.00
41264;BME280;26998;48.714;9.414;2022-09-12T00:55:16;98896.56;;;10.74;100.00
41264;BME280;26998;48.714;9.414;2022-09-12T00:57:59;98895.94;;;10.72;100.00
41264;BME280;26998;48.714;9.414;2022-09-12T01:00:27;98889.31;;;10.68;100.00
41264;BME280;26998;48.714;9.414;2022-09-12T01:02:57;98888.91;;;10.64;100.00
41264;BME280;26998;48.714;9.414;2022-09-12T01:05:27;98881.69;;;10.64;100.00
41264;BME280;26998;48.714;9.414;2022-09-12T01:07:55;98875.28;;;10.59;100.00
41264;BME280;26998;48.714;9.414;2022-09-12T01:10:22;98872.84;;;10.57;100.00
41264;BME280;26998;48.714;9.414;2022-09-12T01:12:49;98871.19;;;10.56;100.00
41264;BME280;26998;48.714;9.414;2022-09-12T01:15:15;98867.88;;;10.54;100.00
41264;BME280;26998;48.714;9.414;2022-09-12T01:20:54;98859.91;;;10.61;100.00
41264;BME280;26998;48.714;9.414;2022-09-12T01:23:56;98866.47;;;10.58;100.00
41264;BME280;26998;48.714;9.414;2022-09-12T01:26:40;98863.75;;;10.52;100.00
41264;BME280;26998;48.714;9.414;2022-09-12T01:29:30;98857.56;;;10.45;100.00
41264;BME280;26998;48.714;9.414;2022-09-12T01:34:53;98864.91;;;10.36;100.00
41264;BME280;26998;48.714;9.414;2022-09-12T01:37:30;98859.69;;;10.28;100.00
41264;BME280;26998;48.714;9.414;2022-09-12T01:42:55;98865.19;;;10.20;100.00
41264;BME280;26998;48.714;9.414;2022-09-12T01:45:41;98861.22;;;10.15;100.00
41264;BME280;26998;48.714;9.414;2022-09-12T01:48:18;98872.34;;;10.12;100.00
41264;BME280;26998;48.714;9.414;2022-09-12T01:50:51;98873.53;;;10.10;100.00
41264;BME280;26998;48.714;9.414;2022-09-12T01:53:29;98863.72;;;10.17;100.00
41264;BME280;26998;48.714;9.414;2022-09-12T01:56:09;98859.16;;;10.11;100.00
41264;BME280;26998;48.714;9.414;2022-09-12T01:58:49;98858.34;;;10.10;100.00
41264;BME280;26998;48.714;9.414;2022-09-12T02:01:24;98845.16;;;10.09;100.00
41264;BME280;26998;48.714;9.414;2022-09-12T02:04:15;98851.34;;;10.09;100.00
41264;BME280;26998;48.714;9.414;2022-09-12T02:06:47;98839.00;;;10.08;100.00
41264;BME280;26998;48.714;9.414;2022-09-12T02:09:44;98848.03;;;10.07;100.00
41264;BME280;26998;48.714;9.414;2022-09-12T02:12:11;98847.00;;;10.08;100.00
41264;BME280;26998;48.714;9.414;2022-09-12T02:14:44;98845.16;;;10.09;100.00
41264;BME280;26998;48.714;9.414;2022-09-12T02:17:22;98838.22;;;10.14;100.00
41264;BME280;26998;48.714;9.414;2022-09-12T02:20:04;98837.19;;;10.15;100.00
41264;BME280;26998;48.714;9.414;2022-09-12T02:22:34;98835.94;;;10.11;100.00
41264;BME280;26998;48.714;9.414;2022-09-12T02:25:04;98837.38;;;10.07;100.00
41264;BME280;26998;48.714;9.414;2022-09-12T02:27:40;98832.81;;;10.01;100.00
41264;BME280;26998;48.714;9.414;2022-09-12T02:30:08;98829.09;;;10.02;100.00
41264;BME280;26998;48.714;9.414;2022-09-12T02:33:05;98829.44;;;9.92;100.00
41264;BME280;26998;48.714;9.414;2022-09-12T02:38:13;98833.81;;;9.72;100.00
41264;BME280;26998;48.714;9.414;2022-09-12T02:40:42;98826.75;;;9.64;100.00
41264;BME280;26998;48.714;9.414;2022-09-12T02:43:10;98824.47;;;9.61;100.00
41264;BME280;26998;48.714;9.414;2022-09-12T02:45:37;98827.41;;;9.66;100.00
41264;BME280;26998;48.714;9.414;2022-09-12T02:48:05;98817.34;;;9.68;100.00
41264;BME280;26998;48.714;9.414;2022-09-12T02:50:34;98821.69;;;9.69;100.00
41264;BME280;26998;48.714;9.414;2022-09-12T02:53:02;98817.34;;;9.68;100.00
41264;BME280;26998;48.714;9.414;2022-09-12T02:55:29;98821.09;;;9.74;100.00
41264;BME280;26998;48.714;9.414;2022-09-12T02:57:56;98816.13;;;9.71;100.00
41264;BME280;26998;48.714;9.414;2022-09-12T03:00:23;98821.69;;;9.69;100.00
41264;BME280;26998;48.714;9.414;2022-09-12T03:03:08;98828.66;;;9.70;100.00
41264;BME280;26998;48.714;9.414;2022-09-12T03:05:50;98819.03;;;9.69;100.00
41264;BME280;26998;48.714;9.414;2022-09-12T03:11:40;98806.88;;;9.67;100.00
41264;BME280;26998;48.714;9.414;2022-09-12T03:14:25;98812.16;;;9.60;100.00
41264;BME280;26998;48.714;9.414;2022-09-12T03:17:22;98809.50;;;9.60;100.00
41264;BME280;26998;48.714;9.414;2022-09-12T03:20:08;98812.94;;;9.54;100.00
41264;BME280;26998;48.714;9.414;2022-09-12T03:22:46;98824.16;;;9.49;100.00
41264;BME280;26998;48.714;9.414;2022-09-12T03:25:43;98831.13;;;9.44;100.00
41264;BME280;26998;48.714;9.414;2022-09-12T03:28:15;98822.22;;;9.37;100.00
41264;BME280;26998;48.714;9.414;2022-09-12T03:30:47;98824.50;;;9.40;100.00
41264;BME280;26998;48.714;9.414;2022-09-12T03:33:18;98825.69;;;9.37;100.00
41264;BME280;26998;48.714;9.414;2022-09-12T03:35:45;98825.69;;;9.37;100.00
41264;BME280;26998;48.714;9.414;2022-09-12T03:38:12;98820.75;;;9.34;100.00
41264;BME280;26998;48.714;9.414;2022-09-12T03:40:39;98827.88;;;9.27;100.00
41264;BME280;26998;48.714;9.414;2022-09-12T03:43:07;98827.03;;;9.27;100.00
41264;BME280;26998;48.714;9.414;2022-09-12T03:45:34;98831.34;;;9.28;100.00
41264;BME280;26998;48.714;9.414;2022-09-12T03:48:02;98825.63;;;9.31;100.00
41264;BME280;26998;48.714;9.414;2022-09-12T03:50:28;98825.63;;;9.31;100.00
41264;BME280;26998;48.714;9.414;2022-09-12T03:52:55;98829.13;;;9.31;100.00
41264;BME280;26998;48.714;9.414;2022-09-12T03:55:23;98828.31;;;9.31;100.00
41264;BME280;26998;48.714;9.414;2022-09-12T03:57:52;98819.41;;;9.23;100.00
41264;BME280;26998;48.714;9.414;2022-09-12T04:00:18;98820.81;;;9.19;100.00
41264;BME280;26998;48.714;9.414;2022-09-12T04:02:45;98827.81;;;9.20;100.00
41264;BME280;26998;48.714;9.414;2022-09-12T04:05:12;98826.16;;;9.19;100.00
41264;BME280;26998;48.714;9.414;2022-09-12T04:07:38;98825.91;;;9.14;100.00
41264;BME280;26998;48.714;9.414;2022-09-12T04:10:05;98825.91;;;9.14;100.00
41264;BME280;26998;48.714;9.414;2022-09-12T04:12:31;98829.97;;;9.10;100.00
41264;BME280;26998;48.714;9.414;2022-09-12T04:14:58;98829.13;;;9.10;100.00
41264;BME280;26998;48.714;9.414;2022-09-12T04:17:24;98826.00;;;9.06;100.00
41264;BME280;26998;48.714;9.414;2022-09-12T04:19:51;98833.38;;;9.04;100.00
41264;BME280;26998;48.714;9.414;2022-09-12T04:22:17;98825.38;;;9.04;100.00
41264;BME280;26998;48.714;9.414;2022-09-12T04:24:44;98824.09;;;9.00;100.00
41264;BME280;26998;48.714;9.414;2022-09-12T04:27:10;98824.94;;;9.00;100.00
41264;BME280;26998;48.714;9.414;2022-09-12T04:29:37;98824.72;;;9.02;100.00
41264;BME280;26998;48.714;9.414;2022-09-12T04:32:03;98823.28;;;8.99;100.00
41264;BME280;26998;48.714;9.414;2022-09-12T04:34:30;98822.72;;;9.04;100.00
41264;BME280;26998;48.714;9.414;2022-09-12T04:36:57;98819.69;;;9.07;100.00
41264;BME280;26998;48.714;9.414;2022-09-12T04:39:23;98826.00;;;9.06;100.00
41264;BME280;26998;48.714;9.414;2022-09-12T04:41:49;98825.75;;;9.01;100.00
41264;BME280;26998;48.714;9.414;2022-09-12T04:44:16;98836.03;;;9.04;100.00
41264;BME280;26998;48.714;9.414;2022-09-12T04:46:44;98833.44;;;9.11;100.00
41264;BME280;26998;48.714;9.414;2022-09-12T04:49:12;98828.19;;;9.17;100.00
41264;BME280;26998;48.714;9.414;2022-09-12T04:51:40;98829.44;;;9.21;100.00
41264;BME280;26998;48.714;9.414;2022-09-12T04:54:11;98828.13;;;9.32;100.00
41264;BME280;26998;48.714;9.414;2022-09-12T04:56:40;98826.06;;;9.34;100.00
41264;BME280;26998;48.714;9.414;2022-09-12T04:59:07;98839.63;;;9.33;100.00
41264;BME280;26998;48.714;9.414;2022-09-12T05:01:34;98847.50;;;9.41;100.00
41264;BME280;26998;48.714;9.414;2022-09-12T05:04:01;98840.25;;;9.35;100.00
41264;BME280;26998;48.714;9.414;2022-09-12T05:06:32;98839.19;;;9.29;100.00
41264;BME280;26998;48.714;9.414;2022-09-12T05:09:01;98837.97;;;9.32;100.00
41264;BME280;26998;48.714;9.414;2022-09-12T05:11:30;98846.16;;;9.30;100.00
41264;BME280;26998;48.714;9.414;2022-09-12T05:14:17;98851.22;;;9.25;100.00
41264;BME280;26998;48.714;9.414;2022-09-12T05:16:43;98843.94;;;9.34;100.00
41264;BME280;26998;48.714;9.414;2022-09-12T05:19:14;98846.22;;;9.37;100.00
41264;BME280;26998;48.714;9.414;2022-09-12T05:21:41;98845.28;;;9.44;100.00
41264;BME280;26998;48.714;9.414;2022-09-12T05:24:09;98839.34;;;9.49;100.00
41264;BME280;26998;48.714;9.414;2022-09-12T05:26:35;98846.16;;;9.52;100.00
41264;BME280;26998;48.714;9.414;2022-09-12T05:29:03;98838.84;;;9.60;100.00
41264;BME280;26998;48.714;9.414;2022-09-12T05:31:30;98837.69;;;9.69;100.00
41264;BME280;26998;48.714;9.414;2022-09-12T05:33:56;98828.78;;;9.62;100.00
41264;BME280;26998;48.714;9.414;2022-09-12T05:36:25;98843.97;;;9.62;100.00
41264;BME280;26998;48.714;9.414;2022-09-12T05:38:52;98843.59;;;9.65;100.00
41264;BME280;26998;48.714;9.414;2022-09-12T05:41:21;98847.34;;;9.70;100.00
41264;BME280;26998;48.714;9.414;2022-09-12T05:44:11;98859.28;;;9.75;100.00
41264;BME280;26998;48.714;9.414;2022-09-12T05:46:39;98853.16;;;9.81;100.00
41264;BME280;26998;48.714;9.414;2022-09-12T05:49:09;98851.34;;;9.81;100.00
41264;BME280;26998;48.714;9.414;2022-09-12T05:51:39;98858.94;;;9.84;100.00
41264;BME280;26998;48.714;9.414;2022-09-12T05:54:08;98854.84;;;9.82;100.00
41264;BME280;26998;48.714;9.414;2022-09-12T05:56:40;98852.78;;;9.84;100.00
41264;BME280;26998;48.714;9.414;2022-09-12T05:59:19;98856.47;;;9.83;100.00
41264;BME280;26998;48.714;9.414;2022-09-12T06:01:47;98857.50;;;9.82;100.00
41264;BME280;26998;48.714;9.414;2022-09-12T06:04:14;98855.34;;;9.70;100.00
41264;BME280;26998;48.714;9.414;2022-09-12T06:06:42;98858.03;;;9.70;100.00
41264;BME280;26998;48.714;9.414;2022-09-12T06:09:09;98858.75;;;9.86;100.00
41264;BME280;26998;48.714;9.414;2022-09-12T06:11:38;98848.22;;;10.06;100.00
41264;BME280;26998;48.714;9.414;2022-09-12T06:14:05;98851.81;;;10.20;100.00
41264;BME280;26998;48.714;9.414;2022-09-12T06:16:32;98846.59;;;10.33;100.00
41264;BME280;26998;48.714;9.414;2022-09-12T06:19:02;98838.69;;;10.25;100.00
41264;BME280;26998;48.714;9.414;2022-09-12T06:21:29;98842.75;;;10.14;100.00
41264;BME280;26998;48.714;9.414;2022-09-12T06:23:56;98839.81;;;10.09;100.00
41264;BME280;26998;48.714;9.414;2022-09-12T06:26:23;98846.22;;;10.14;100.00
41264;BME280;26998;48.714;9.414;2022-09-12T06:28:50;98836.81;;;10.18;100.00
41264;BME280;26998;48.714;9.414;2022-09-12T06:31:20;98838.84;;;10.45;100.00
41264;BME280;26998;48.714;9.414;2022-09-12T06:33:49;98828.25;;;10.64;100.00
41264;BME280;26998;48.714;9.414;2022-09-12T06:36:30;98821.34;;;10.90;100.00
41264;BME280;26998;48.714;9.414;2022-09-12T06:39:01;98824.09;;;11.10;100.00
41264;BME280;26998;48.714;9.414;2022-09-12T06:41:29;98814.44;;;11.09;100.00
41264;BME280;26998;48.714;9.414;2022-09-12T06:43:57;98814.22;;;11.04;100.00
41264;BME280;26998;48.714;9.414;2022-09-12T06:46:24;98816.09;;;11.17;100.00
41264;BME280;26998;48.714;9.414;2022-09-12T06:48:50;98818.59;;;11.38;100.00
41264;BME280;26998;48.714;9.414;2022-09-12T06:51:18;98813.25;;;11.45;100.00
41264;BME280;26998;48.714;9.414;2022-09-12T06:53:46;98812.41;;;11.44;100.00
41264;BME280;26998;48.714;9.414;2022-09-12T06:56:17;98817.16;;;11.75;100.00
41264;BME280;26998;48.714;9.414;2022-09-12T06:58:44;98822.72;;;11.67;100.00
41264;BME280;26998;48.714;9.414;2022-09-12T07:01:18;98823.34;;;11.76;100.00
41264;BME280;26998;48.714;9.414;2022-09-12T07:03:49;98836.72;;;11.83;100.00
41264;BME280;26998;48.714;9.414;2022-09-12T07:06:23;98834.66;;;11.65;100.00
41264;BME280;26998;48.714;9.414;2022-09-12T07:08:50;98833.00;;;11.50;100.00
41264;BME280;26998;48.714;9.414;2022-09-12T07:11:22;98826.81;;;11.37;100.00
41264;BME280;26998;48.714;9.414;2022-09-12T07:13:54;98825.94;;;11.09;100.00
41264;BME280;26998;48.714;9.414;2022-09-12T07:16:21;98823.28;;;11.23;100.00
41264;BME280;26998;48.714;9.414;2022-09-12T07:18:52;98830.75;;;11.41;100.00
41264;BME280;26998;48.714;9.414;2022-09-12T07:21:19;98822.09;;;11.59;100.00
41264;BME280;26998;48.714;9.414;2022-09-12T07:23:46;98825.59;;;11.79;100.00
41264;BME280;26998;48.714;9.414;2022-09-12T07:26:14;98828.69;;;11.83;100.00
41264;BME280;26998;48.714;9.414;2022-09-12T07:28:42;98815.53;;;12.01;100.00
41264;BME280;26998;48.714;9.414;2022-09-12T07:31:14;98807.78;;;12.51;100.00
41264;BME280;26998;48.714;9.414;2022-09-12T07:33:41;98811.97;;;12.85;100.00
41264;BME280;26998;48.714;9.414;2022-09-12T07:36:15;98806.34;;;13.00;100.00
41264;BME280;26998;48.714;9.414;2022-09-12T07:38:42;98808.06;;;13.26;100.00
41264;BME280;26998;48.714;9.414;2022-09-12T07:41:18;98811.50;;;13.40;100.00
41264;BME280;26998;48.714;9.414;2022-09-12T07:43:45;98801.03;;;13.57;100.00
41264;BME280;26998;48.714;9.414;2022-09-12T07:46:12;98797.75;;;13.98;100.00
41264;BME280;26998;48.714;9.414;2022-09-12T07:48:39;98794.44;;;14.03;100.00
41264;BME280;26998;48.714;9.414;2022-09-12T07:51:08;98794.78;;;13.63;100.00
41264;BME280;26998;48.714;9.414;2022-09-12T07:53:44;98797.69;;;13.86;100.00
41264;BME280;26998;48.714;9.414;2022-09-12T07:56:12;98797.72;;;14.05;100.00
41264;BME280;26998;48.714;9.414;2022-09-12T07:58:40;98792.28;;;14.12;100.00
41264;BME280;26998;48.714;9.414;2022-09-12T08:01:16;98796.06;;;14.04;100.00
41264;BME280;26998;48.714;9.414;2022-09-12T08:03:46;98800.66;;;14.22;100.00
41264;BME280;26998;48.714;9.414;2022-09-12T08:06:16;98798.94;;;14.27;100.00
41264;BME280;26998;48.714;9.414;2022-09-12T08:08:42;98795.09;;;14.90;100.00
41264;BME280;26998;48.714;9.414;2022-09-12T08:11:11;98802.81;;;14.50;100.00
41264;BME280;26998;48.714;9.414;2022-09-12T08:13:40;98800.53;;;14.53;100.00
41264;BME280;26998;48.714;9.414;2022-09-12T08:16:14;98796.22;;;14.83;100.00
41264;BME280;26998;48.714;9.414;2022-09-12T08:18:41;98790.00;;;15.00;100.00
41264;BME280;26998;48.714;9.414;2022-09-12T08:21:11;98786.63;;;15.47;100.00
41264;BME280;26998;48.714;9.414;2022-09-12T08:23:38;98790.31;;;15.76;100.00
41264;BME280;26998;48.714;9.414;2022-09-12T08:26:05;98780.38;;;16.00;100.00
41264;BME280;26998;48.714;9.414;2022-09-12T08:28:33;98780.69;;;16.39;98.33
41264;BME280;26998;48.714;9.414;2022-09-12T08:31:04;98776.13;;;16.39;99.09
41264;BME280;26998;48.714;9.414;2022-09-12T08:33:31;98778.47;;;16.12;100.00
41264;BME280;26998;48.714;9.414;2022-09-12T08:36:04;98773.13;;;16.65;99.28
41264;BME280;26998;48.714;9.414;2022-09-12T08:38:35;98770.03;;;16.73;97.48
41264;BME280;26998;48.714;9.414;2022-09-12T08:43:50;98770.00;;;17.13;98.91
41264;BME280;26998;48.714;9.414;2022-09-12T08:46:35;98756.94;;;17.22;94.88
41264;BME280;26998;48.714;9.414;2022-09-12T08:49:08;98755.47;;;17.31;95.53
41264;BME280;26998;48.714;9.414;2022-09-12T08:51:36;98756.22;;;17.43;95.02
41264;BME280;26998;48.714;9.414;2022-09-12T08:54:15;98750.34;;;17.80;90.48
41264;BME280;26998;48.714;9.414;2022-09-12T08:56:44;98742.91;;;18.09;87.17
41264;BME280;26998;48.714;9.414;2022-09-12T08:59:11;98744.41;;;18.39;87.05
41264;BME280;26998;48.714;9.414;2022-09-12T09:01:43;98744.88;;;18.14;88.15
41264;BME280;26998;48.714;9.414;2022-09-12T09:07:17;98742.59;;;18.93;85.25
41264;BME280;26998;48.714;9.414;2022-09-12T09:10:17;98741.22;;;18.69;84.42
41264;BME280;26998;48.714;9.414;2022-09-12T09:12:55;98733.59;;;18.66;85.63
41264;BME280;26998;48.714;9.414;2022-09-12T09:18:33;98730.13;;;19.20;84.74
41264;BME280;26998;48.714;9.414;2022-09-12T09:21:08;98732.84;;;19.52;82.06
41264;BME280;26998;48.714;9.414;2022-09-12T09:23:42;98728.28;;;19.95;79.11
41264;BME280;26998;48.714;9.414;2022-09-12T09:28:59;98733.00;;;20.10;75.61
41264;BME280;26998;48.714;9.414;2022-09-12T09:31:32;98734.06;;;20.08;75.11
41264;BME280;26998;48.714;9.414;2022-09-12T09:34:00;98726.44;;;20.58;73.55
41264;BME280;26998;48.714;9.414;2022-09-12T09:36:48;98728.09;;;20.74;72.93
41264;BME280;26998;48.714;9.414;2022-09-12T09:39:26;98721.13;;;20.94;70.51
41264;BME280;26998;48.714;9.414;2022-09-12T09:45:02;98723.91;;;21.50;68.21
41264;BME280;26998;48.714;9.414;2022-09-12T09:47:29;98736.13;;;21.63;65.37
41264;BME280;26998;48.714;9.414;2022-09-12T09:49:56;98732.81;;;21.86;63.33
41264;BME280;26998;48.714;9.414;2022-09-12T09:52:28;98732.59;;;21.47;63.80
41264;BME280;26998;48.714;9.414;2022-09-12T09:54:58;98730.41;;;21.39;64.03
41264;BME280;26998;48.714;9.414;2022-09-12T10:00:27;98730.66;;;21.88;63.15
41264;BME280;26998;48.714;9.414;2022-09-12T10:03:06;98733.03;;;22.16;58.60
41264;BME280;26998;48.714;9.414;2022-09-12T10:05:48;98729.53;;;22.05;57.32
41264;BME280;26998;48.714;9.414;2022-09-12T10:08:21;98726.78;;;22.25;58.04
41264;BME280;26998;48.714;9.414;2022-09-12T10:10:57;98726.41;;;22.52;57.53
41264;BME280;26998;48.714;9.414;2022-09-12T10:13:32;98720.13;;;22.57;58.04
41264;BME280;26998;48.714;9.414;2022-09-12T10:16:06;98725.72;;;22.76;56.11
41264;BME280;26998;48.714;9.414;2022-09-12T10:18:41;98726.13;;;22.49;54.70
41264;BME280;26998;48.714;9.414;2022-09-12T10:21:13;98718.75;;;22.54;55.15
41264;BME280;26998;48.714;9.414;2022-09-12T10:23:42;98716.38;;;22.92;53.42
41264;BME280;26998;48.714;9.414;2022-09-12T10:26:11;98723.00;;;22.81;51.73
41264;BME280;26998;48.714;9.414;2022-09-12T10:28:41;98720.69;;;23.03;51.58
41264;BME280;26998;48.714;9.414;2022-09-12T10:31:13;98718.34;;;23.26;52.87
41264;BME280;26998;48.714;9.414;2022-09-12T10:33:46;98715.41;;;22.73;51.82
41264;BME280;26998;48.714;9.414;2022-09-12T10:36:13;98714.75;;;22.96;51.60
41264;BME280;26998;48.714;9.414;2022-09-12T10:38:48;98721.19;;;23.11;51.70
41264;BME280;26998;48.714;9.414;2022-09-12T10:41:15;98719.25;;;23.50;50.07
41264;BME280;26998;48.714;9.414;2022-09-12T10:43:43;98713.25;;;23.48;48.85
41264;BME280;26998;48.714;9.414;2022-09-12T10:46:27;98720.09;;;23.80;48.13
41264;BME280;26998;48.714;9.414;2022-09-12T10:49:16;98720.13;;;23.46;49.35
41264;BME280;26998;48.714;9.414;2022-09-12T10:51:44;98716.94;;;23.34;49.71
41264;BME280;26998;48.714;9.414;2022-09-12T10:54:11;98718.09;;;23.57;49.21
41264;BME280;26998;48.714;9.414;2022-09-12T10:56:44;98711.09;;;23.80;48.82
41264;BME280;26998;48.714;9.414;2022-09-12T10:59:24;98718.88;;;23.91;45.87
41264;BME280;26998;48.714;9.414;2022-09-12T11:02:20;98706.28;;;23.95;46.59
41264;BME280;26998;48.714;9.414;2022-09-12T11:05:02;98705.06;;;24.07;45.98
41264;BME280;26998;48.714;9.414;2022-09-12T11:07:41;98701.81;;;23.81;46.61
41264;BME280;26998;48.714;9.414;2022-09-12T11:10:22;98692.28;;;23.78;45.82
41264;BME280;26998;48.714;9.414;2022-09-12T11:13:16;98690.94;;;23.76;47.35
41264;BME280;26998;48.714;9.414;2022-09-12T11:15:53;98692.97;;;23.89;46.81
41264;BME280;26998;48.714;9.414;2022-09-12T11:18:29;98682.97;;;24.08;45.99
41264;BME280;26998;48.714;9.414;2022-09-12T11:24:00;98683.41;;;23.91;46.24
41264;BME280;26998;48.714;9.414;2022-09-12T11:29:21;98673.13;;;24.31;45.73
41264;BME280;26998;48.714;9.414;2022-09-12T11:35:15;98675.25;;;24.77;44.20
41264;BME280;26998;48.714;9.414;2022-09-12T11:38:02;98666.03;;;24.30;43.99
41264;BME280;26998;48.714;9.414;2022-09-12T11:40:44;98671.19;;;24.75;42.72
41264;BME280;26998;48.714;9.414;2022-09-12T11:43:44;98665.56;;;24.85;44.47
41264;BME280;26998;48.714;9.414;2022-09-12T11:46:31;98655.56;;;24.37;44.55
41264;BME280;26998;48.714;9.414;2022-09-12T11:54:55;98655.53;;;24.99;42.55
41264;BME280;26998;48.714;9.414;2022-09-12T12:02:27;98656.00;;;25.20;41.16
41264;BME280;26998;48.714;9.414;2022-09-12T12:05:03;98655.06;;;25.11;42.10
41264;BME280;26998;48.714;9.414;2022-09-12T12:07:41;98652.00;;;25.31;41.84
41264;BME280;26998;48.714;9.414;2022-09-12T12:10:28;98651.66;;;25.19;41.73
41264;BME280;26998;48.714;9.414;2022-09-12T12:12:58;98653.28;;;25.53;41.49
41264;BME280;26998;48.714;9.414;2022-09-12T12:15:26;98646.94;;;25.25;41.26
41264;BME280;26998;48.714;9.414;2022-09-12T12:18:23;98651.00;;;25.27;40.55
41264;BME280;26998;48.714;9.414;2022-09-12T12:20:51;98643.28;;;25.10;40.28
41264;BME280;26998;48.714;9.414;2022-09-12T12:25:53;98635.00;;;24.64;40.49
41264;BME280;26998;48.714;9.414;2022-09-12T12:29:00;98630.94;;;24.61;38.93
41264;BME280;26998;48.714;9.414;2022-09-12T12:31:25;98634.09;;;24.87;38.42
41264;BME280;26998;48.714;9.414;2022-09-12T12:33:53;98634.16;;;24.82;39.60
41264;BME280;26998;48.714;9.414;2022-09-12T12:36:39;98632.94;;;25.26;39.14
41264;BME280;26998;48.714;9.414;2022-09-12T12:42:00;98628.00;;;25.09;38.91
41264;BME280;26998;48.714;9.414;2022-09-12T12:47:20;98624.03;;;25.02;39.97
41264;BME280;26998;48.714;9.414;2022-09-12T12:50:19;98619.84;;;25.23;39.64
41264;BME280;26998;48.714;9.414;2022-09-12T12:52:56;98617.09;;;24.91;40.39
41264;BME280;26998;48.714;9.414;2022-09-12T12:55:46;98615.72;;;24.74;41.14
41264;BME280;26998;48.714;9.414;2022-09-12T12:58:35;98612.28;;;25.01;39.26
41264;BME280;26998;48.714;9.414;2022-09-12T13:01:14;98615.34;;;24.81;39.51
41264;BME280;26998;48.714;9.414;2022-09-12T13:03:43;98609.44;;;25.25;39.38
41264;BME280;26998;48.714;9.414;2022-09-12T13:09:03;98609.16;;;25.41;38.15
41264;BME280;26998;48.714;9.414;2022-09-12T13:11:34;98596.78;;;25.29;39.91
41264;BME280;26998;48.714;9.414;2022-09-12T13:14:04;98595.38;;;25.32;39.25
41264;BME280;26998;48.714;9.414;2022-09-12T13:16:39;98593.44;;;25.32;37.80
41264;BME280;26998;48.714;9.414;2022-09-12T13:19:22;98595.81;;;25.53;38.14
41264;BME280;26998;48.714;9.414;2022-09-12T13:22:04;98588.16;;;25.83;38.19
41264;BME280;26998;48.714;9.414;2022-09-12T13:24:32;98589.84;;;26.06;37.58
41264;BME280;26998;48.714;9.414;2022-09-12T13:26:59;98581.72;;;26.01;36.97
41264;BME280;26998;48.714;9.414;2022-09-12T13:29:26;98585.38;;;25.55;36.00
41264;BME280;26998;48.714;9.414;2022-09-12T13:31:55;98580.09;;;24.79;37.84
41264;BME280;26998;48.714;9.414;2022-09-12T13:34:50;98579.38;;;24.55;37.38
41264;BME280;26998;48.714;9.414;2022-09-12T13:37:30;98573.16;;;24.87;38.10
41264;BME280;26998;48.714;9.414;2022-09-12T13:42:48;98568.94;;;25.27;36.73
41264;BME280;26998;48.714;9.414;2022-09-12T13:45:21;98567.78;;;24.63;37.85
41264;BME280;26998;48.714;9.414;2022-09-12T13:47:52;98566.75;;;24.78;37.54
41264;BME280;26998;48.714;9.414;2022-09-12T13:50:27;98560.44;;;25.10;37.64
41264;BME280;26998;48.714;9.414;2022-09-12T13:52:57;98558.19;;;24.98;38.50
41264;BME280;26998;48.714;9.414;2022-09-12T13:55:32;98566.84;;;25.52;36.87
41264;BME280;26998;48.714;9.414;2022-09-12T13:58:02;98560.94;;;25.31;37.35
41264;BME280;26998;48.714;9.414;2022-09-12T14:00:30;98551.13;;;25.30;36.85
41264;BME280;26998;48.714;9.414;2022-09-12T14:02:58;98559.63;;;24.96;37.11
41264;BME280;26998;48.714;9.414;2022-09-12T14:05:25;98537.94;;;25.18;37.22
41264;BME280;26998;48.714;9.414;2022-09-12T14:07:57;98539.94;;;24.61;38.23
41264;BME280;26998;48.714;9.414;2022-09-12T14:13:42;98544.81;;;24.83;38.58
41264;BME280;26998;48.714;9.414;2022-09-12T14:15:49;98542.69;;;24.80;38.02
41264;BME280;26998;48.714;9.414;2022-09-12T14:18:28;98550.69;;;24.90;37.44
41264;BME280;26998;48.714;9.414;2022-09-12T14:21:07;98531.78;;;25.07;37.42
41264;BME280;26998;48.714;9.414;2022-09-12T14:23:36;98532.03;;;25.11;37.52
41264;BME280;26998;48.714;9.414;2022-09-12T14:26:09;98530.84;;;25.31;38.08
41264;BME280;26998;48.714;9.414;2022-09-12T14:28:39;98524.88;;;25.43;37.07
41264;BME280;26998;48.714;9.414;2022-09-12T14:31:28;98527.22;;;25.49;36.47
41264;BME280;26998;48.714;9.414;2022-09-12T14:34:16;98525.28;;;25.50;36.61
41264;BME280;26998;48.714;9.414;2022-09-12T14:36:48;98525.78;;;25.66;36.71